CDT,Max TemperatureF,Mean TemperatureF,Min TemperatureF,Max Dew PointF,MeanDew PointF,Min DewpointF,Max Humidity, Mean Humidity, Min Humidity, Max Sea Level PressureIn, Mean Sea Level PressureIn, Min Sea Level PressureIn, Max VisibilityMiles, Mean VisibilityMiles, Min VisibilityMiles, Max Wind SpeedMPH, Mean Wind SpeedMPH, Max Gust SpeedMPH,PrecipitationIn, CloudCover, Events, WindDirDegrees
2013-5-1,81,67,53,66,59,52,93,74,54,30.08,30.04,29.97,10,10,10,15,4,18,0.00,1,,128
2013-5-2,76,66,55,62,58,53,97,79,61,30.14,30.08,30.04,10,8,5,16,5,22,0.04,4,Rain,110
2013-5-3,55,49,42,54,44,39,96,93,89,30.04,29.89,29.83,10,6,1,15,8,18,1.65,8,Rain,306
2013-5-4,51,46,40,41,38,34,93,75,56,29.98,29.93,29.88,10,10,7,12,5,14,T,7,Rain,188
2013-5-5,56,48,40,54,48,38,100,91,82,29.97,29.90,29.86,10,8,4,17,5,21,0.18,7,Rain,299
2013-5-6,66,60,53,56,53,51,100,84,67,29.96,29.90,29.85,10,10,6,18,9,23,0.00,8,,357
2013-5-7,74,62,50,61,55,50,100,79,57,30.02,29.99,29.95,10,9,2,10,4,13,0.00,2,,313
2013-5-8,80,65,49,63,55,49,100,70,39,30.05,30.01,29.98,10,6,0,9,2,13,0.00,1,Fog,225
2013-5-9,80,70,60,64,60,52,93,66,39,30.01,29.96,29.90,10,10,9,25,10,36,T,3,,189
2013-5-10,77,68,59,64,61,54,93,77,60,29.99,29.88,29.84,10,9,1,20,8,25,0.15,4,Rain-Thunderstorm,278
2013-5-11,74,63,51,56,48,36,86,59,31,30.14,30.02,29.97,10,10,8,22,9,30,0.01,4,Rain,345
2013-5-12,66,54,41,43,34,26,89,57,24,30.24,30.18,30.14,10,10,10,17,6,23,0.00,0,,338
2013-5-13,71,55,38,47,40,34,100,64,28,30.26,30.19,30.09,10,9,2,12,3,18,0.00,0,,169
2013-5-14,86,70,54,61,56,44,83,62,40,30.07,29.97,29.89,10,10,10,22,10,25,0.00,0,,197
2013-5-15,84,73,62,63,59,55,73,59,44,30.02,29.95,29.90,10,10,10,20,10,24,0.00,0,,221
2013-5-16,79,72,64,61,59,56,87,68,48,29.98,29.93,29.90,10,10,10,15,6,18,T,2,,198
2013-5-17,74,67,60,67,64,62,100,87,73,29.96,29.94,29.91,10,8,3,14,5,18,0.01,7,Rain,124
2013-5-18,84,71,58,67,62,57,100,78,55,30.02,29.97,29.90,10,4,0,12,3,15,0.00,5,Fog,135
2013-5-19,88,79,70,73,69,63,97,73,48,29.92,29.88,29.80,10,8,2,22,9,28,0.00,3,,170
2013-5-20,88,80,72,72,68,65,87,67,46,29.92,29.86,29.77,10,10,8,20,12,26,0.00,3,,189
2013-5-21,79,72,64,68,64,61,93,81,69,29.90,29.82,29.73,10,9,2,33,12,39,0.21,4,Rain-Thunderstorm,208
2013-5-22,78,71,63,63,61,57,93,76,58,29.88,29.80,29.75,10,10,10,18,10,24,T,4,Rain,222
2013-5-23,75,65,54,57,54,50,100,75,49,30.18,30.03,29.91,10,10,10,22,10,25,0.00,3,,325
2013-5-24,72,60,48,49,40,35,83,56,28,30.38,30.30,30.22,10,10,10,23,6,30,0.00,0,,53
2013-5-25,76,60,44,54,49,42,93,67,41,30.34,30.25,30.15,10,10,10,12,4,17,0.00,0,,152
2013-5-26,84,70,55,61,58,53,93,68,43,30.19,30.13,30.06,10,10,10,13,6,18,0.00,1,,158
2013-5-27,85,75,65,66,60,55,78,61,43,30.06,29.98,29.88,10,10,10,20,10,28,0.00,2,,194
2013-5-28,89,79,69,67,63,59,79,60,40,29.99,29.93,29.89,10,10,10,26,14,38,0.00,0,,191
2013-5-29,88,77,66,67,63,60,81,62,43,30.03,29.96,29.89,10,10,10,21,11,29,0.00,1,,174
2013-5-30,86,80,73,72,68,66,79,69,58,29.98,29.93,29.87,10,9,2,26,13,38,0.08,4,Rain-Thunderstorm,179
2013-5-31,81,74,67,72,69,64,90,82,74,29.97,29.90,29.79,10,9,0,29,13,37,1.02,6,Fog-Rain-Thunderstorm,181